createdAt,value
2023-02-02T00:01:36.284Z,102313.56
2023-02-02T00:04:04.821Z,102318.59
2023-02-02T00:06:34.234Z,102314.97
2023-02-02T00:09:04.306Z,102315.69
2023-02-02T00:11:32.411Z,102321.72
2023-02-02T00:14:01.041Z,102299.25
2023-02-02T00:16:41.188Z,102300.03
2023-02-02T00:19:10.067Z,102294.72
2023-02-02T00:21:39.927Z,102308.41
2023-02-02T00:24:10.456Z,102303.31
2023-02-02T00:26:39.186Z,102307.91
2023-02-02T00:29:08.607Z,102303.09
2023-02-02T00:31:36.743Z,102305.03
2023-02-02T00:34:04.939Z,102299.00
2023-02-02T00:36:33.008Z,102312.84
2023-02-02T00:39:01.103Z,102305.38
2023-02-02T00:41:30.496Z,102308.25
2023-02-02T00:44:15.621Z,102312.28
2023-02-02T00:46:44.055Z,102312.94
2023-02-02T00:49:12.091Z,102309.88
2023-02-02T00:51:40.275Z,102307.63
2023-02-02T00:54:08.328Z,102313.09
2023-02-02T00:56:37.793Z,102307.38
2023-02-02T00:59:05.779Z,102311.00
2023-02-02T01:01:34.050Z,102313.69
2023-02-02T01:04:02.352Z,102299.16
2023-02-02T01:06:30.371Z,102305.28
2023-02-02T01:08:58.573Z,102312.16
2023-02-02T01:11:26.757Z,102304.53
2023-02-02T01:13:56.150Z,102301.16
2023-02-02T01:16:24.880Z,102299.53
2023-02-02T01:18:53.417Z,102295.78
2023-02-02T01:21:21.529Z,102297.16
2023-02-02T01:23:50.013Z,102293.63
2023-02-02T01:26:18.673Z,102294.59
2023-02-02T01:28:47.392Z,102282.75
2023-02-02T01:31:18.154Z,102286.19
2023-02-02T01:33:47.401Z,102279.47
2023-02-02T01:36:18.429Z,102276.09
2023-02-02T01:38:46.969Z,102276.66
2023-02-02T01:41:17.232Z,102271.94
2023-02-02T01:43:57.304Z,102277.66
2023-02-02T01:46:29.030Z,102279.25
2023-02-02T01:49:02.750Z,102276.03
2023-02-02T01:51:37.627Z,102270.78
2023-02-02T01:54:09.023Z,102276.59
2023-02-02T01:56:45.059Z,102268.09
2023-02-02T01:59:15.444Z,102268.09
2023-02-02T02:01:46.067Z,102278.22
2023-02-02T02:04:14.401Z,102272.19
2023-02-02T02:06:42.658Z,102279.81
2023-02-02T02:09:10.670Z,102278.69
2023-02-02T02:11:38.763Z,102270.63
2023-02-02T02:14:26.450Z,102263.16
2023-02-02T02:17:14.758Z,102268.28
2023-02-02T02:20:49.045Z,102270.75
2023-02-02T02:24:21.855Z,102271.28
2023-02-02T02:27:23.343Z,102271.28
2023-02-02T02:30:22.601Z,102264.75
2023-02-02T02:32:58.249Z,102271.50
2023-02-02T02:35:33.285Z,102248.28
2023-02-02T02:38:09.657Z,102257.06
2023-02-02T02:40:42.637Z,102255.88
2023-02-02T02:43:17.510Z,102244.41
2023-02-02T02:45:46.382Z,102248.34
2023-02-02T02:48:15.870Z,102243.69
2023-02-02T02:50:44.235Z,102247.78
2023-02-02T02:53:16.261Z,102250.66
2023-02-02T02:55:55.721Z,102266.50
2023-02-02T02:58:32.941Z,102260.44
2023-02-02T03:01:08.275Z,102258.41
2023-02-02T03:04:01.863Z,102259.63
2023-02-02T03:06:34.097Z,102258.31
2023-02-02T03:09:07.080Z,102256.13
2023-02-02T03:11:36.482Z,102249.72
2023-02-02T03:14:09.646Z,102260.41
2023-02-02T03:16:38.249Z,102255.34
2023-02-02T03:19:08.592Z,102253.72
2023-02-02T03:21:36.908Z,102250.25
2023-02-02T03:24:05.291Z,102268.44
2023-02-02T03:26:33.350Z,102252.97
2023-02-02T03:29:02.272Z,102253.06
2023-02-02T03:31:30.964Z,102263.41
2023-02-02T03:33:59.193Z,102265.19
2023-02-02T03:36:28.901Z,102259.22
2023-02-02T03:38:56.952Z,102262.53
2023-02-02T03:41:24.967Z,102265.84
2023-02-02T03:43:52.955Z,102266.81
2023-02-02T03:46:21.029Z,102268.56
2023-02-02T03:48:49.106Z,102267.94
2023-02-02T03:51:17.136Z,102261.31
2023-02-02T03:53:47.706Z,102269.84
2023-02-02T03:56:16.029Z,102253.47
2023-02-02T03:58:44.049Z,102264.69
2023-02-02T04:01:13.835Z,102257.94
2023-02-02T04:03:41.805Z,102258.84
2023-02-02T04:06:09.816Z,102259.88
2023-02-02T04:08:39.496Z,102260.88
2023-02-02T04:11:10.962Z,102261.63
2023-02-02T04:13:40.045Z,102257.41
2023-02-02T04:16:08.396Z,102260.31
2023-02-02T04:18:37.958Z,102254.47
2023-02-02T04:21:06.676Z,102258.97
2023-02-02T04:23:34.979Z,102247.03
2023-02-02T04:26:03.037Z,102253.09
2023-02-02T04:28:32.563Z,102248.56
2023-02-02T04:31:00.633Z,102255.38
2023-02-02T04:33:29.866Z,102251.97
2023-02-02T04:35:57.857Z,102253.81
2023-02-02T04:38:25.888Z,102252.19
2023-02-02T04:40:54.069Z,102246.91
2023-02-02T04:43:22.136Z,102245.13
2023-02-02T04:45:56.486Z,102247.03
2023-02-02T04:48:24.484Z,102248.00
2023-02-02T04:50:52.558Z,102249.47
2023-02-02T04:53:20.504Z,102247.50
2023-02-02T04:55:48.541Z,102252.59
2023-02-02T04:58:16.543Z,102254.13
2023-02-02T05:00:44.631Z,102269.25
2023-02-02T05:03:14.086Z,102262.28
2023-02-02T05:05:42.094Z,102272.75
2023-02-02T05:08:12.065Z,102264.28
2023-02-02T05:10:42.031Z,102272.97
2023-02-02T05:13:10.501Z,102273.75
2023-02-02T05:15:38.449Z,102277.22
2023-02-02T05:18:06.461Z,102273.88
2023-02-02T05:20:35.828Z,102267.06
2023-02-02T05:23:03.815Z,102278.25
2023-02-02T05:25:31.866Z,102261.97
2023-02-02T05:27:59.945Z,102268.91
2023-02-02T05:30:27.985Z,102268.03
2023-02-02T05:32:55.974Z,102260.31
2023-02-02T05:35:24.229Z,102260.31
2023-02-02T05:37:53.832Z,102260.00
2023-02-02T05:40:21.807Z,102249.25
2023-02-02T05:42:50.109Z,102251.69
2023-02-02T05:45:18.335Z,102242.19
2023-02-02T05:47:46.466Z,102242.38
2023-02-02T05:50:14.592Z,102235.66
2023-02-02T05:52:44.653Z,102233.97
2023-02-02T05:55:14.038Z,102232.88
2023-02-02T05:57:42.049Z,102239.78
2023-02-02T06:00:11.477Z,102235.56
2023-02-02T06:02:39.497Z,102241.41
2023-02-02T06:05:08.487Z,102234.41
2023-02-02T06:07:36.515Z,102240.97
2023-02-02T06:10:04.948Z,102239.16
2023-02-02T06:12:34.364Z,102243.66
2023-02-02T06:15:02.443Z,102240.59
2023-02-02T06:17:30.432Z,102231.38
2023-02-02T06:19:58.441Z,102244.25
2023-02-02T06:22:26.459Z,102232.06
2023-02-02T06:24:54.600Z,102227.63
2023-02-02T06:27:22.640Z,102234.63
2023-02-02T06:29:52.034Z,102232.06
2023-02-02T06:32:20.063Z,102226.16
2023-02-02T06:34:48.054Z,102239.09
2023-02-02T06:37:16.056Z,102238.25
2023-02-02T06:39:44.043Z,102240.88
2023-02-02T06:42:21.194Z,102233.09
2023-02-02T06:44:51.391Z,102232.72
2023-02-02T06:47:19.398Z,102234.81
2023-02-02T06:49:47.414Z,102226.56
2023-02-02T06:52:15.439Z,102224.28
2023-02-02T06:54:43.500Z,102230.00
2023-02-02T06:57:11.520Z,102220.44
2023-02-02T06:59:41.081Z,102219.47
2023-02-02T07:02:13.335Z,102228.91
2023-02-02T07:04:41.330Z,102233.16
2023-02-02T07:07:09.312Z,102247.28
2023-02-02T07:09:37.655Z,102235.66
2023-02-02T07:12:05.791Z,102237.97
2023-02-02T07:14:33.795Z,102227.88
2023-02-02T07:17:01.830Z,102231.25
2023-02-02T07:19:31.322Z,102236.00
2023-02-02T07:21:59.420Z,102239.03
2023-02-02T07:24:28.886Z,102234.63
2023-02-02T07:26:58.153Z,102243.91
2023-02-02T07:29:26.356Z,102243.91
2023-02-02T07:31:54.446Z,102245.50
2023-02-02T07:34:23.800Z,102246.63
2023-02-02T07:36:53.280Z,102248.47
2023-02-02T07:39:21.431Z,102245.84
2023-02-02T07:41:49.472Z,102243.03
2023-02-02T07:44:17.845Z,102242.13
2023-02-02T07:46:48.091Z,102239.03
2023-02-02T07:49:18.467Z,102233.25
2023-02-02T07:51:49.199Z,102229.56
2023-02-02T07:54:21.686Z,102231.50
2023-02-02T07:56:49.885Z,102227.44
2023-02-02T07:59:18.060Z,102237.91
2023-02-02T08:01:46.192Z,102230.69
2023-02-02T08:04:14.266Z,102245.38
2023-02-02T08:06:42.289Z,102227.50
2023-02-02T08:09:11.195Z,102236.22
2023-02-02T08:11:40.995Z,102233.25
2023-02-02T08:14:09.414Z,102241.38
2023-02-02T08:16:37.633Z,102241.84
2023-02-02T08:19:05.954Z,102244.81
2023-02-02T08:21:34.713Z,102226.13
2023-02-02T08:24:04.756Z,102231.44
2023-02-02T08:26:35.302Z,102239.84
2023-02-02T08:29:08.550Z,102219.38
2023-02-02T08:31:39.581Z,102226.06
2023-02-02T08:34:07.699Z,102219.25
2023-02-02T08:36:36.335Z,102227.31
2023-02-02T08:39:06.272Z,102215.53
2023-02-02T08:41:34.775Z,102222.75
2023-02-02T08:44:09.375Z,102220.50
2023-02-02T08:46:39.404Z,102215.88
2023-02-02T08:49:07.676Z,102225.72
2023-02-02T08:51:35.861Z,102233.88
2023-02-02T08:54:04.124Z,102248.06
2023-02-02T08:56:32.237Z,102244.13
2023-02-02T08:59:00.323Z,102254.66
2023-02-02T09:01:31.473Z,102266.88
2023-02-02T09:04:01.757Z,102266.34
2023-02-02T09:06:32.976Z,102272.75
2023-02-02T09:09:01.568Z,102268.97
2023-02-02T09:11:29.993Z,102269.19
2023-02-02T09:13:59.567Z,102266.88
2023-02-02T09:16:30.081Z,102262.88
2023-02-02T09:18:58.520Z,102269.09
2023-02-02T09:21:27.554Z,102272.84
2023-02-02T09:23:55.947Z,102277.47
2023-02-02T09:26:26.733Z,102280.25
2023-02-02T09:28:57.403Z,102284.50
2023-02-02T09:31:30.339Z,102287.03
2023-02-02T09:34:03.707Z,102279.50
2023-02-02T09:36:31.981Z,102280.34
2023-02-02T09:39:01.919Z,102281.25
2023-02-02T09:42:05.479Z,102276.03
2023-02-02T09:44:56.185Z,102277.56
2023-02-02T09:47:26.911Z,102281.88
2023-02-02T09:50:02.045Z,102282.69
2023-02-02T09:52:34.543Z,102293.00
2023-02-02T09:55:08.186Z,102289.94
2023-02-02T09:57:42.902Z,102290.41
2023-02-02T10:00:27.046Z,102302.94
2023-02-02T10:03:01.093Z,102308.38
2023-02-02T10:05:45.244Z,102311.00
2023-02-02T10:08:33.839Z,102293.78
2023-02-02T10:11:23.878Z,102290.44
2023-02-02T10:13:54.049Z,102299.19
2023-02-02T10:16:23.647Z,102303.75
2023-02-02T10:18:59.824Z,102316.56
2023-02-02T10:21:36.934Z,102303.75
2023-02-02T10:24:05.376Z,102321.34
2023-02-02T10:26:39.464Z,102313.13
2023-02-02T10:29:16.697Z,102304.91
2023-02-02T10:31:51.272Z,102318.91
2023-02-02T10:34:25.895Z,102307.06
2023-02-02T10:37:23.852Z,102306.28
2023-02-02T10:40:17.475Z,102315.81
2023-02-02T10:43:22.183Z,102321.09
2023-02-02T10:45:52.631Z,102326.28
2023-02-02T10:48:23.620Z,102325.19
2023-02-02T10:50:55.355Z,102328.63
2023-02-02T10:53:29.690Z,102334.47
2023-02-02T10:56:05.046Z,102321.53
2023-02-02T10:58:41.429Z,102330.06
2023-02-02T11:01:11.850Z,102325.56
2023-02-02T11:03:40.329Z,102333.41
2023-02-02T11:06:27.069Z,102336.78
2023-02-02T11:08:59.605Z,102336.78
2023-02-02T11:11:32.622Z,102337.47
2023-02-02T11:14:05.108Z,102324.94
2023-02-02T11:16:42.519Z,102339.75
2023-02-02T11:19:24.887Z,102333.69
2023-02-02T11:21:56.435Z,102332.88
2023-02-02T11:24:29.000Z,102333.22
2023-02-02T11:27:00.718Z,102330.88
2023-02-02T11:29:32.235Z,102322.53
2023-02-02T11:32:18.535Z,102329.72
2023-02-02T11:34:46.841Z,102325.81
2023-02-02T11:37:16.509Z,102333.84
2023-02-02T11:39:45.980Z,102326.22
2023-02-02T11:42:18.173Z,102328.91
2023-02-02T11:44:49.350Z,102339.50
2023-02-02T11:47:22.792Z,102329.34
2023-02-02T11:49:53.439Z,102340.84
2023-02-02T11:52:23.999Z,102329.78
2023-02-02T11:54:57.026Z,102336.91
2023-02-02T11:57:28.414Z,102337.78
2023-02-02T12:00:16.735Z,102326.69
2023-02-02T12:02:47.695Z,102325.75
2023-02-02T12:05:34.677Z,102331.25
2023-02-02T12:08:02.968Z,102326.00
2023-02-02T12:10:40.031Z,102326.81
2023-02-02T12:13:14.861Z,102320.91
2023-02-02T12:15:54.378Z,102314.00
2023-02-02T12:18:38.797Z,102319.28
2023-02-02T12:21:08.176Z,102304.13
2023-02-02T12:23:59.982Z,102302.81
2023-02-02T12:26:32.739Z,102305.28
2023-02-02T12:29:26.433Z,102306.66
2023-02-02T12:32:08.608Z,102300.47
2023-02-02T12:34:49.193Z,102297.94
2023-02-02T12:37:26.004Z,102292.00
2023-02-02T12:40:04.639Z,102286.00
2023-02-02T12:42:51.070Z,102279.16
2023-02-02T12:45:43.450Z,102273.41
2023-02-02T12:48:22.146Z,102284.06
2023-02-02T12:51:04.244Z,102277.22
2023-02-02T12:53:43.521Z,102268.78
2023-02-02T12:56:24.029Z,102274.97
2023-02-02T12:59:02.040Z,102278.03
2023-02-02T13:01:53.977Z,102270.75
2023-02-02T13:04:46.232Z,102275.63
2023-02-02T13:07:33.234Z,102276.34
2023-02-02T13:10:09.425Z,102269.66
2023-02-02T13:12:43.250Z,102272.66
2023-02-02T13:15:16.531Z,102274.50
2023-02-02T13:17:47.997Z,102269.56
2023-02-02T13:20:24.421Z,102274.63
2023-02-02T13:22:57.842Z,102268.13
2023-02-02T13:25:31.831Z,102279.84
2023-02-02T13:28:02.170Z,102256.47
2023-02-02T13:30:34.367Z,102268.63
2023-02-02T13:33:07.478Z,102259.28
2023-02-02T13:35:40.574Z,102261.75
2023-02-02T13:38:23.869Z,102276.47
2023-02-02T13:40:55.451Z,102256.69
2023-02-02T13:43:35.284Z,102252.38
2023-02-02T13:46:22.403Z,102257.06
2023-02-02T13:49:02.254Z,102248.28
2023-02-02T13:51:49.815Z,102244.66
2023-02-02T13:54:53.214Z,102233.63
2023-02-02T13:57:44.708Z,102229.50
2023-02-02T14:00:20.496Z,102246.38
2023-02-02T14:02:53.837Z,102235.69
2023-02-02T14:05:26.789Z,102230.34
2023-02-02T14:08:04.816Z,102239.28
2023-02-02T14:10:36.336Z,102227.16
2023-02-02T14:13:29.302Z,102225.97
2023-02-02T14:15:59.496Z,102232.50
2023-02-02T14:18:46.068Z,102235.03
2023-02-02T14:21:53.949Z,102237.31
2023-02-02T14:24:47.164Z,102215.16
2023-02-02T14:27:56.656Z,102227.84
2023-02-02T14:30:36.397Z,102212.88
2023-02-02T14:33:25.951Z,102205.84
2023-02-02T14:36:02.217Z,102198.00
2023-02-02T14:38:59.263Z,102197.91
2023-02-02T14:42:06.099Z,102197.91
2023-02-02T14:44:37.638Z,102206.38
2023-02-02T14:47:25.907Z,102211.78
2023-02-02T14:49:58.821Z,102215.81
2023-02-02T14:52:28.028Z,102210.63
2023-02-02T14:54:58.097Z,102217.50
2023-02-02T14:57:28.521Z,102209.75
2023-02-02T15:00:01.114Z,102206.13
2023-02-02T15:02:34.851Z,102181.09
2023-02-02T15:05:46.342Z,102180.06
2023-02-02T15:08:23.251Z,102187.69
2023-02-02T15:11:02.632Z,102175.41
2023-02-02T15:13:37.747Z,102170.31
2023-02-02T15:16:16.379Z,102190.19
2023-02-02T15:18:57.686Z,102197.81
2023-02-02T15:21:27.414Z,102199.22
2023-02-02T15:23:57.057Z,102220.66
2023-02-02T15:26:34.260Z,102235.47
2023-02-02T15:29:08.257Z,102247.59
2023-02-02T15:31:41.586Z,102267.59
2023-02-02T15:34:17.432Z,102263.19
2023-02-02T15:36:48.116Z,102254.53
2023-02-02T15:39:28.032Z,102257.22
2023-02-02T15:42:17.343Z,102266.53
2023-02-02T15:44:45.666Z,102269.94
2023-02-02T15:47:17.159Z,102262.03
2023-02-02T15:49:46.266Z,102274.69
2023-02-02T15:52:16.088Z,102274.50
2023-02-02T15:54:54.022Z,102276.94
2023-02-02T15:57:35.495Z,102286.38
2023-02-02T16:00:25.317Z,102283.72
2023-02-02T16:02:59.699Z,102292.31
2023-02-02T16:05:46.433Z,102282.00
2023-02-02T16:08:19.461Z,102265.69
2023-02-02T16:10:49.535Z,102253.59
2023-02-02T16:13:26.724Z,102253.69
2023-02-02T16:16:00.787Z,102256.31
2023-02-02T16:18:29.347Z,102248.56
2023-02-02T16:21:00.549Z,102244.91
2023-02-02T16:23:33.996Z,102241.41
2023-02-02T16:26:05.817Z,102243.03
2023-02-02T16:28:36.236Z,102247.25
2023-02-02T16:31:05.735Z,102244.44
2023-02-02T16:33:39.709Z,102245.03
2023-02-02T16:36:25.397Z,102249.75
2023-02-02T16:38:55.404Z,102239.84
2023-02-02T16:41:28.861Z,102255.75
2023-02-02T16:44:30.824Z,102269.03
2023-02-02T16:46:59.879Z,102270.41
2023-02-02T16:49:29.858Z,102276.91
2023-02-02T16:52:16.464Z,102279.13
2023-02-02T16:54:52.676Z,102297.81
2023-02-02T16:57:24.078Z,102283.13
2023-02-02T16:59:55.468Z,102287.44
2023-02-02T17:02:31.219Z,102295.03
2023-02-02T17:05:03.976Z,102283.94
2023-02-02T17:07:34.546Z,102287.16
2023-02-02T17:10:22.086Z,102292.13
2023-02-02T17:12:50.202Z,102292.19
2023-02-02T17:15:35.032Z,102290.47
2023-02-02T17:18:04.302Z,102296.47
2023-02-02T17:20:34.488Z,102287.78
2023-02-02T17:23:05.322Z,102293.69
2023-02-02T17:25:37.809Z,102298.16
2023-02-02T17:28:11.045Z,102309.84
2023-02-02T17:30:41.208Z,102316.13
2023-02-02T17:33:11.161Z,102322.31
2023-02-02T17:35:53.251Z,102327.59
2023-02-02T17:38:23.012Z,102334.69
2023-02-02T17:40:51.919Z,102334.69
2023-02-02T17:43:20.055Z,102332.16
2023-02-02T17:45:50.504Z,102347.63
2023-02-02T17:48:18.853Z,102333.00
2023-02-02T17:50:46.951Z,102342.53
2023-02-02T17:53:17.764Z,102348.28
2023-02-02T17:55:47.435Z,102346.47
2023-02-02T17:58:17.647Z,102333.31
2023-02-02T18:00:53.841Z,102338.75
2023-02-02T18:03:26.281Z,102349.03
2023-02-02T18:05:54.378Z,102353.63
2023-02-02T18:08:22.525Z,102353.72
2023-02-02T18:10:50.579Z,102362.25
2023-02-02T18:13:20.592Z,102351.50
2023-02-02T18:15:49.089Z,102359.78
2023-02-02T18:18:17.366Z,102375.81
2023-02-02T18:20:48.871Z,102369.47
2023-02-02T18:23:18.513Z,102391.22
2023-02-02T18:25:46.588Z,102385.81
2023-02-02T18:28:17.196Z,102397.44
2023-02-02T18:30:46.890Z,102402.22
2023-02-02T18:33:19.857Z,102397.50
2023-02-02T18:35:49.945Z,102397.72
2023-02-02T18:38:18.195Z,102400.56
2023-02-02T18:40:46.215Z,102406.75
2023-02-02T18:43:14.257Z,102399.91
2023-02-02T18:45:42.489Z,102402.34
2023-02-02T18:48:10.505Z,102402.50
2023-02-02T18:50:38.620Z,102395.09
2023-02-02T18:53:09.266Z,102383.31
2023-02-02T18:55:38.567Z,102383.63
2023-02-02T18:58:10.416Z,102382.38
2023-02-02T19:00:38.404Z,102376.88
2023-02-02T19:03:06.428Z,102376.47
2023-02-02T19:05:51.952Z,102365.00
2023-02-02T19:08:21.376Z,102373.47
2023-02-02T19:10:49.943Z,102373.41
2023-02-02T19:13:22.304Z,102365.59
2023-02-02T19:15:51.940Z,102359.94
2023-02-02T19:18:22.627Z,102366.13
2023-02-02T19:20:51.400Z,102366.91
2023-02-02T19:23:23.727Z,102364.94
2023-02-02T19:25:54.152Z,102362.34
2023-02-02T19:28:24.401Z,102347.78
2023-02-02T19:30:53.038Z,102336.53
2023-02-02T19:33:22.103Z,102353.75
2023-02-02T19:35:53.166Z,102355.53
2023-02-02T19:38:25.613Z,102363.25
2023-02-02T19:40:53.777Z,102353.75
2023-02-02T19:43:29.779Z,102372.06
2023-02-02T19:46:01.135Z,102363.19
2023-02-02T19:48:34.731Z,102367.34
2023-02-02T19:51:35.381Z,102363.66
2023-02-02T19:54:05.893Z,102360.41
2023-02-02T19:56:39.410Z,102357.97
2023-02-02T19:59:13.699Z,102358.94
2023-02-02T20:01:45.983Z,102359.94
2023-02-02T20:04:15.868Z,102368.88
2023-02-02T20:06:58.152Z,102364.72
2023-02-02T20:09:35.295Z,102373.47
2023-02-02T20:12:20.564Z,102377.84
2023-02-02T20:14:49.086Z,102385.56
2023-02-02T20:17:23.874Z,102385.50
2023-02-02T20:19:51.874Z,102378.69
2023-02-02T20:22:25.887Z,102386.66
2023-02-02T20:24:56.708Z,102386.75
2023-02-02T20:27:27.105Z,102386.78
2023-02-02T20:29:58.861Z,102397.13
2023-02-02T20:32:30.353Z,102410.97
2023-02-02T20:35:00.104Z,102399.84
2023-02-02T20:37:30.186Z,102396.44
2023-02-02T20:40:22.607Z,102400.03
2023-02-02T20:42:51.069Z,102401.88
2023-02-02T20:45:21.621Z,102400.94
2023-02-02T20:47:50.157Z,102402.44
2023-02-02T20:50:20.477Z,102406.53
2023-02-02T20:52:48.733Z,102395.41
2023-02-02T20:55:18.802Z,102398.72
2023-02-02T20:57:46.853Z,102408.19
2023-02-02T21:00:21.405Z,102398.78
2023-02-02T21:02:49.654Z,102385.84
2023-02-02T21:05:17.963Z,102388.28
2023-02-02T21:07:45.999Z,102399.47
2023-02-02T21:10:14.181Z,102391.81
2023-02-02T21:12:43.586Z,102399.63
2023-02-02T21:15:12.084Z,102407.44
2023-02-02T21:17:40.664Z,102398.06
2023-02-02T21:20:10.199Z,102391.34
2023-02-02T21:22:38.284Z,102392.22
2023-02-02T21:25:07.039Z,102409.47
2023-02-02T21:27:36.196Z,102403.50
2023-02-02T21:30:08.973Z,102401.75
2023-02-02T21:32:37.162Z,102400.88
2023-02-02T21:35:05.726Z,102400.03
2023-02-02T21:37:36.065Z,102383.69
2023-02-02T21:40:13.412Z,102384.50
2023-02-02T21:42:48.635Z,102383.75
2023-02-02T21:45:34.498Z,102379.47
2023-02-02T21:48:06.375Z,102394.75
2023-02-02T21:50:37.448Z,102381.50
2023-02-02T21:53:20.095Z,102380.19
2023-02-02T21:55:52.193Z,102381.22
2023-02-02T21:58:24.979Z,102384.88
2023-02-02T22:01:07.339Z,102383.41
2023-02-02T22:03:38.093Z,102375.69
2023-02-02T22:06:27.153Z,102372.94
2023-02-02T22:09:01.725Z,102377.44
2023-02-02T22:11:36.162Z,102395.63
2023-02-02T22:14:19.702Z,102397.25
2023-02-02T22:16:53.679Z,102401.69
2023-02-02T22:19:36.342Z,102398.72
2023-02-02T22:22:13.682Z,102394.91
2023-02-02T22:24:42.206Z,102391.09
2023-02-02T22:27:23.469Z,102400.13
2023-02-02T22:29:56.320Z,102408.66
2023-02-02T22:32:25.771Z,102405.50
2023-02-02T22:34:56.270Z,102415.28
2023-02-02T22:37:24.484Z,102393.97
2023-02-02T22:39:52.515Z,102413.94
2023-02-02T22:42:20.558Z,102404.50
2023-02-02T22:44:48.532Z,102402.66
2023-02-02T22:47:16.528Z,102398.47
2023-02-02T22:49:45.945Z,102388.28
2023-02-02T22:52:13.962Z,102405.66
2023-02-02T22:54:42.006Z,102405.81
2023-02-02T22:57:10.062Z,102393.84
2023-02-02T22:59:38.188Z,102396.44
2023-02-02T23:02:08.252Z,102390.34
2023-02-02T23:04:37.705Z,102388.41
2023-02-02T23:07:07.088Z,102391.53
2023-02-02T23:09:35.121Z,102398.31
2023-02-02T23:12:03.818Z,102404.44
2023-02-02T23:14:31.839Z,102389.75
2023-02-02T23:16:59.815Z,102377.69
2023-02-02T23:19:27.887Z,102380.41
2023-02-02T23:21:55.901Z,102387.19
2023-02-02T23:24:25.409Z,102391.31
2023-02-02T23:26:53.463Z,102403.56
2023-02-02T23:29:21.566Z,102411.56
2023-02-02T23:31:49.665Z,102434.72
2023-02-02T23:34:17.704Z,102420.13
2023-02-02T23:36:45.693Z,102415.75
2023-02-02T23:39:13.699Z,102419.16
2023-02-02T23:41:45.590Z,102423.28
2023-02-02T23:44:13.554Z,102424.31
2023-02-02T23:46:42.389Z,102422.69
2023-02-02T23:49:10.644Z,102421.13
2023-02-02T23:51:38.860Z,102422.75
2023-02-02T23:54:07.128Z,102427.09
2023-02-02T23:56:35.382Z,102441.13
2023-02-02T23:59:04.938Z,102441.25
